createdAt,value
2023-05-12T00:00:07.877Z,31.00
2023-05-12T00:03:04.611Z,28.00
2023-05-12T00:05:32.849Z,38.00
2023-05-12T00:08:01.195Z,26.00
2023-05-12T00:10:29.371Z,31.00
2023-05-12T00:12:57.449Z,25.00
2023-05-12T00:15:25.589Z,33.00
2023-05-12T00:20:23.393Z,34.00
2023-05-12T00:22:51.768Z,25.00
2023-05-12T00:25:19.659Z,26.00
2023-05-12T00:27:47.708Z,25.00
2023-05-12T00:32:44.158Z,27.00
2023-05-12T00:35:12.641Z,24.00
2023-05-12T00:37:40.502Z,25.00
2023-05-12T00:40:09.527Z,30.00
2023-05-12T00:42:37.681Z,43.00
2023-05-12T00:45:06.572Z,65.00
2023-05-12T00:47:34.514Z,54.00
2023-05-12T00:50:04.582Z,54.00
2023-05-12T00:52:32.727Z,34.00
2023-05-12T00:55:02.330Z,27.50
2023-05-12T00:57:30.393Z,40.00
2023-05-12T00:59:59.081Z,58.00
2023-05-12T01:04:55.728Z,26.00
2023-05-12T01:07:26.167Z,26.50
2023-05-12T01:09:55.734Z,22.00
2023-05-12T01:12:24.579Z,27.00
2023-05-12T01:14:53.369Z,25.50
2023-05-12T01:17:23.963Z,31.50
2023-05-12T01:19:54.305Z,23.50
2023-05-12T01:22:22.347Z,27.00
2023-05-12T01:25:00.693Z,22.00
2023-05-12T01:27:30.649Z,24.00
2023-05-12T01:30:01.510Z,23.00
2023-05-12T01:32:31.242Z,23.00
2023-05-12T01:35:00.299Z,29.50
2023-05-12T01:37:29.228Z,30.00
2023-05-12T01:39:57.722Z,29.50
2023-05-12T01:42:25.798Z,22.00
2023-05-12T01:44:54.055Z,22.00
2023-05-12T01:47:22.072Z,24.00
2023-05-12T01:49:55.867Z,21.00
2023-05-12T01:52:25.053Z,22.00
2023-05-12T01:54:53.701Z,25.00
2023-05-12T01:59:50.969Z,29.00
2023-05-12T02:02:19.346Z,26.50
2023-05-12T02:04:47.524Z,30.25
2023-05-12T02:07:15.935Z,24.50
2023-05-12T02:09:44.721Z,20.75
2023-05-12T02:12:13.688Z,24.00
2023-05-12T02:14:41.760Z,25.00
2023-05-12T02:17:09.852Z,20.00
2023-05-12T02:19:38.141Z,23.00
2023-05-12T02:22:06.138Z,22.00
2023-05-12T02:24:34.103Z,23.50
2023-05-12T02:27:02.347Z,23.00
2023-05-12T02:29:30.756Z,24.00
2023-05-12T02:31:59.678Z,24.00
2023-05-12T02:36:57.351Z,25.00
2023-05-12T02:39:25.743Z,25.00
2023-05-12T02:41:53.932Z,34.00
2023-05-12T02:44:22.915Z,24.00
2023-05-12T02:46:51.289Z,29.00
2023-05-12T02:49:19.514Z,29.50
2023-05-12T02:51:48.749Z,27.50
2023-05-12T02:54:16.854Z,26.00
2023-05-12T02:56:44.724Z,28.00
2023-05-12T02:59:14.920Z,26.00
2023-05-12T03:01:43.182Z,28.00
2023-05-12T03:04:11.653Z,30.00
2023-05-12T03:06:39.847Z,31.00
2023-05-12T03:09:07.752Z,27.00
2023-05-12T03:11:35.679Z,26.00
2023-05-12T03:14:03.787Z,27.00
2023-05-12T03:16:31.765Z,26.00
2023-05-12T03:18:59.807Z,29.00
2023-05-12T03:21:28.775Z,28.00
2023-05-12T03:26:24.674Z,25.50
2023-05-12T03:28:52.921Z,27.50
2023-05-12T03:31:21.010Z,29.00
2023-05-12T03:33:48.958Z,29.50
2023-05-12T03:36:16.994Z,25.50
2023-05-12T03:38:45.091Z,29.00
2023-05-12T03:41:14.380Z,29.50
2023-05-12T03:43:42.443Z,29.67
2023-05-12T03:46:10.320Z,32.00
2023-05-12T03:48:38.385Z,31.00
2023-05-12T03:51:06.544Z,38.00
2023-05-12T03:53:34.445Z,28.00
2023-05-12T03:56:05.995Z,30.00
2023-05-12T03:58:34.117Z,29.00
2023-05-12T04:01:02.014Z,26.00
2023-05-12T04:03:30.086Z,36.00
2023-05-12T04:08:30.039Z,29.00
2023-05-12T04:10:58.857Z,32.50
2023-05-12T04:13:27.007Z,30.50
2023-05-12T04:15:59.940Z,28.50
2023-05-12T04:18:28.153Z,29.00
2023-05-12T04:20:56.232Z,28.00
2023-05-12T04:23:24.339Z,31.00
2023-05-12T04:25:52.285Z,28.00
2023-05-12T04:28:20.682Z,31.00
2023-05-12T04:30:48.691Z,33.00
2023-05-12T04:35:44.868Z,39.00
2023-05-12T04:38:14.161Z,35.00
2023-05-12T04:40:42.478Z,42.00
2023-05-12T04:43:59.987Z,37.00
2023-05-12T04:46:00.258Z,32.00
2023-05-12T04:48:29.940Z,29.00
2023-05-12T04:51:01.419Z,29.00
2023-05-12T04:53:29.380Z,35.00
2023-05-12T04:56:00.110Z,33.00
2023-05-12T04:58:34.114Z,37.50
2023-05-12T05:01:02.181Z,29.00
2023-05-12T05:03:30.197Z,37.00
2023-05-12T05:05:59.240Z,31.00
2023-05-12T05:10:55.912Z,35.00
2023-05-12T05:13:24.340Z,38.00
2023-05-12T05:16:00.945Z,38.50
2023-05-12T05:18:29.280Z,41.00
2023-05-12T05:20:59.042Z,36.00
2023-05-12T05:25:58.455Z,39.50
2023-05-12T05:28:26.916Z,34.00
2023-05-12T05:30:56.954Z,49.50
2023-05-12T05:33:25.114Z,33.00
2023-05-12T05:35:53.261Z,35.00
2023-05-12T05:38:21.134Z,33.50
2023-05-12T05:40:53.852Z,30.00
2023-05-12T05:43:23.368Z,34.50
2023-05-12T05:50:53.690Z,34.00
2023-05-12T05:53:23.110Z,33.00
2023-05-12T05:55:51.568Z,36.00
2023-05-12T05:58:19.448Z,35.00
2023-05-12T06:00:47.952Z,38.50
2023-05-12T06:03:16.176Z,44.00
2023-05-12T06:05:45.534Z,41.00
2023-05-12T06:08:13.626Z,50.00
2023-05-12T06:10:41.827Z,45.00
2023-05-12T06:13:09.808Z,40.50
2023-05-12T06:15:37.800Z,45.00
2023-05-12T06:18:05.776Z,43.00
2023-05-12T06:20:33.765Z,35.50
2023-05-12T06:23:02.648Z,33.00
2023-05-12T06:25:33.476Z,42.00
2023-05-12T06:28:02.072Z,36.00
2023-05-12T06:30:29.982Z,40.50
2023-05-12T06:32:57.904Z,37.00
2023-05-12T06:35:25.983Z,34.00
2023-05-12T06:37:54.130Z,32.00
2023-05-12T06:40:22.308Z,33.00
2023-05-12T06:42:50.489Z,39.00
2023-05-12T06:45:23.385Z,37.50
2023-05-12T06:47:51.493Z,43.00
2023-05-12T06:50:19.593Z,38.50
2023-05-12T06:52:51.306Z,49.25
2023-05-12T06:55:21.170Z,40.00
2023-05-12T06:57:51.725Z,45.00
2023-05-12T07:00:20.012Z,48.00
2023-05-12T07:02:48.237Z,42.50
2023-05-12T07:05:16.572Z,36.50
2023-05-12T07:07:45.610Z,44.00
2023-05-12T07:10:13.671Z,43.50
2023-05-12T07:12:41.535Z,45.00
2023-05-12T07:15:09.964Z,42.00
2023-05-12T07:17:37.938Z,49.00
2023-05-12T07:20:07.228Z,42.00
2023-05-12T07:22:37.345Z,37.00
2023-05-12T07:25:07.714Z,44.00
2023-05-12T07:27:35.753Z,39.00
2023-05-12T07:30:05.825Z,41.00
2023-05-12T07:32:34.090Z,37.00
2023-05-12T07:35:02.225Z,42.00
2023-05-12T07:37:30.811Z,40.00
2023-05-12T07:39:58.866Z,45.00
2023-05-12T07:42:26.832Z,36.00
2023-05-12T07:44:54.629Z,42.00
2023-05-12T07:47:22.505Z,41.00
2023-05-12T07:49:50.619Z,41.00
2023-05-12T07:52:18.792Z,39.00
2023-05-12T07:54:46.975Z,34.00
2023-05-12T07:57:15.147Z,37.00
2023-05-12T07:59:43.114Z,40.00
2023-05-12T08:02:11.421Z,38.00
2023-05-12T08:04:39.436Z,41.00
2023-05-12T08:07:07.383Z,44.00
2023-05-12T08:09:36.001Z,38.00
2023-05-12T08:12:05.924Z,45.00
2023-05-12T08:14:34.196Z,39.50
2023-05-12T08:17:02.366Z,43.00
2023-05-12T08:19:30.340Z,40.50
2023-05-12T08:21:58.296Z,41.50
2023-05-12T08:24:26.144Z,35.00
2023-05-12T08:26:54.268Z,37.50
2023-05-12T08:29:22.385Z,34.00
2023-05-12T08:34:19.233Z,29.00
2023-05-12T08:36:47.254Z,37.00
2023-05-12T08:39:15.208Z,31.00
2023-05-12T08:41:45.421Z,28.50
2023-05-12T08:44:13.813Z,37.00
2023-05-12T08:46:42.548Z,41.00
2023-05-12T08:51:40.682Z,30.00
2023-05-12T08:54:09.064Z,29.00
2023-05-12T08:59:09.607Z,25.00
2023-05-12T09:01:38.015Z,34.00
2023-05-12T09:04:08.463Z,28.00
2023-05-12T09:09:04.504Z,29.00
2023-05-12T09:11:32.618Z,28.00
2023-05-12T09:14:03.078Z,29.00
2023-05-12T09:16:39.757Z,27.00
2023-05-12T09:19:07.890Z,28.50
2023-05-12T09:21:35.895Z,26.50
2023-05-12T09:24:06.738Z,27.50
2023-05-12T09:26:54.253Z,28.00
2023-05-12T09:29:31.282Z,27.00
2023-05-12T09:32:04.446Z,27.50
2023-05-12T09:34:35.798Z,29.50
2023-05-12T09:37:05.328Z,26.00
2023-05-12T09:39:33.516Z,28.50
2023-05-12T09:42:01.498Z,37.00
2023-05-12T09:44:29.665Z,30.50
2023-05-12T09:47:06.446Z,26.00
2023-05-12T09:49:34.244Z,28.50
2023-05-12T09:52:04.256Z,30.00
2023-05-12T09:54:33.592Z,26.50
2023-05-12T09:57:03.744Z,24.50
2023-05-12T09:59:36.130Z,27.50
2023-05-12T10:02:06.160Z,27.00
2023-05-12T10:04:49.642Z,34.00
2023-05-12T10:07:18.639Z,29.50
2023-05-12T10:09:46.737Z,31.50
2023-05-12T10:12:14.719Z,34.00
2023-05-12T10:14:43.562Z,32.00
2023-05-12T10:17:12.501Z,29.00
2023-05-12T10:19:41.860Z,37.00
2023-05-12T10:22:12.810Z,27.00
2023-05-12T10:24:40.790Z,33.00
2023-05-12T10:27:08.723Z,26.00
2023-05-12T10:29:36.774Z,25.00
2023-05-12T10:32:04.896Z,27.00
2023-05-12T10:34:34.123Z,26.00
2023-05-12T10:37:03.745Z,30.50
2023-05-12T10:39:33.051Z,32.00
2023-05-12T10:42:02.769Z,27.00
2023-05-12T10:44:30.625Z,37.00
2023-05-12T10:47:00.931Z,28.50
2023-05-12T10:49:37.614Z,28.00
2023-05-12T10:52:05.827Z,37.50
2023-05-12T10:54:41.688Z,32.50
2023-05-12T10:57:20.686Z,33.50
2023-05-12T10:59:50.715Z,32.00
2023-05-12T11:02:20.860Z,31.50
2023-05-12T11:04:58.285Z,41.50
2023-05-12T11:07:32.874Z,31.00
2023-05-12T11:10:02.904Z,34.00
2023-05-12T11:12:33.467Z,41.00
2023-05-12T11:17:29.980Z,37.00
2023-05-12T11:19:58.590Z,34.00
2023-05-12T11:22:26.826Z,42.00
2023-05-12T11:24:57.057Z,37.00
2023-05-12T11:27:28.159Z,35.00
2023-05-12T11:29:58.618Z,29.50
2023-05-12T11:32:28.075Z,36.50
2023-05-12T11:34:56.205Z,39.00
2023-05-12T11:37:24.151Z,36.00
2023-05-12T11:39:53.082Z,35.00
2023-05-12T11:42:23.540Z,33.00
2023-05-12T11:44:55.556Z,34.00
2023-05-12T11:47:25.420Z,31.00
2023-05-12T11:52:25.252Z,34.00
2023-05-12T11:54:57.068Z,33.00
2023-05-12T11:57:28.686Z,30.50
2023-05-12T12:00:01.905Z,38.00
2023-05-12T12:05:02.133Z,32.00
2023-05-12T12:07:31.748Z,36.00
2023-05-12T12:10:11.052Z,29.00
2023-05-12T12:12:39.607Z,31.00
2023-05-12T12:15:08.592Z,30.00
2023-05-12T12:17:36.611Z,35.00
2023-05-12T12:20:05.245Z,38.67
2023-05-12T12:22:34.710Z,30.00
2023-05-12T12:25:03.453Z,32.00
2023-05-12T12:27:31.422Z,40.00
2023-05-12T12:29:59.533Z,32.00
2023-05-12T12:32:27.754Z,30.50
2023-05-12T12:34:59.771Z,34.00
2023-05-12T12:37:27.807Z,34.33
2023-05-12T12:39:56.065Z,28.50
2023-05-12T12:42:23.959Z,32.00
2023-05-12T12:44:52.576Z,33.00
2023-05-12T12:47:20.481Z,36.00
2023-05-12T12:49:48.348Z,31.00
2023-05-12T12:52:16.405Z,35.00
2023-05-12T12:54:44.344Z,30.00
2023-05-12T12:57:12.146Z,32.00
2023-05-12T12:59:40.362Z,31.00
2023-05-12T13:02:08.283Z,30.00
2023-05-12T13:04:36.272Z,32.00
2023-05-12T13:07:05.532Z,28.00
2023-05-12T13:09:33.579Z,30.50
2023-05-12T13:12:01.486Z,31.00
2023-05-12T13:14:29.428Z,30.00
2023-05-12T13:16:57.550Z,30.00
2023-05-12T13:19:25.473Z,31.00
2023-05-12T13:21:53.409Z,34.00
2023-05-12T13:24:21.464Z,37.00
2023-05-12T13:26:49.325Z,46.50
2023-05-12T13:29:17.278Z,29.00
2023-05-12T13:31:46.470Z,30.00
2023-05-12T13:34:14.592Z,29.00
2023-05-12T13:36:42.663Z,31.00
2023-05-12T13:39:10.846Z,31.00
2023-05-12T13:41:38.692Z,34.00
2023-05-12T13:44:06.649Z,31.00
2023-05-12T13:46:34.773Z,29.00
2023-05-12T13:49:02.989Z,33.00
2023-05-12T13:51:32.460Z,32.00
2023-05-12T13:54:00.339Z,31.50
2023-05-12T13:56:28.228Z,24.50
2023-05-12T13:58:56.189Z,37.00
2023-05-12T14:01:24.019Z,26.00
2023-05-12T14:03:52.012Z,34.00
2023-05-12T14:06:19.821Z,26.00
2023-05-12T14:08:48.388Z,30.50
2023-05-12T14:11:16.874Z,29.00
2023-05-12T14:13:44.694Z,27.50
2023-05-12T14:16:14.409Z,27.00
2023-05-12T14:18:43.694Z,30.00
2023-05-12T14:21:11.948Z,28.00
2023-05-12T14:23:39.830Z,28.00
2023-05-12T14:26:07.645Z,27.00
2023-05-12T14:28:35.705Z,25.00
2023-05-12T14:31:03.839Z,24.50
2023-05-12T14:33:31.772Z,25.00
2023-05-12T14:36:07.158Z,25.00
2023-05-12T14:38:36.532Z,25.00
2023-05-12T14:41:04.711Z,27.00
2023-05-12T14:43:32.662Z,27.00
2023-05-12T14:46:02.407Z,24.00
2023-05-12T14:48:30.632Z,25.50
2023-05-12T14:50:58.667Z,27.00
2023-05-12T14:53:26.576Z,24.00
2023-05-12T14:55:54.556Z,27.00
2023-05-12T14:58:24.399Z,30.00
2023-05-12T15:00:52.882Z,26.00
2023-05-12T15:03:21.402Z,25.00
2023-05-12T15:08:21.606Z,28.00
2023-05-12T15:10:50.065Z,35.00
2023-05-12T15:13:20.361Z,29.50
2023-05-12T15:15:48.834Z,28.00
2023-05-12T15:18:17.250Z,30.00
2023-05-12T15:20:46.014Z,28.00
2023-05-12T15:23:14.086Z,27.00
2023-05-12T15:25:42.365Z,27.00
2023-05-12T15:28:10.251Z,25.00
2023-05-12T15:30:38.306Z,23.50
2023-05-12T15:33:07.066Z,20.50
2023-05-12T15:35:35.488Z,25.00
2023-05-12T15:38:03.537Z,22.00
2023-05-12T15:40:31.437Z,26.00
2023-05-12T15:42:59.574Z,23.00
2023-05-12T15:45:27.536Z,24.00
2023-05-12T15:47:56.829Z,26.00
2023-05-12T15:50:25.024Z,24.00
2023-05-12T15:52:52.966Z,23.00
2023-05-12T15:55:21.240Z,26.50
2023-05-12T15:57:50.370Z,24.50
2023-05-12T16:00:19.450Z,27.00
2023-05-12T16:02:47.649Z,28.00
2023-05-12T16:05:16.262Z,29.00
2023-05-12T16:07:44.286Z,29.67
2023-05-12T16:10:12.450Z,28.00
2023-05-12T16:15:09.950Z,28.00
2023-05-12T16:17:37.931Z,30.00
2023-05-12T16:20:07.874Z,28.00
2023-05-12T16:22:35.868Z,29.00
2023-05-12T16:25:05.082Z,33.00
2023-05-12T16:27:33.705Z,31.00
2023-05-12T16:30:02.925Z,26.00
2023-05-12T16:32:30.931Z,24.50
2023-05-12T16:34:59.093Z,32.00
2023-05-12T16:37:27.838Z,27.00
2023-05-12T16:39:55.847Z,27.00
2023-05-12T16:42:24.023Z,28.00
2023-05-12T16:44:54.812Z,28.00
2023-05-12T16:47:22.868Z,26.00
2023-05-12T16:49:53.671Z,26.00
2023-05-12T16:52:21.836Z,27.00
2023-05-12T16:54:49.800Z,51.00
2023-05-12T16:57:18.791Z,44.00
2023-05-12T16:59:48.566Z,34.00
2023-05-12T17:02:16.817Z,39.50
2023-05-12T17:04:44.876Z,36.00
2023-05-12T17:07:13.027Z,32.00
2023-05-12T17:09:41.094Z,41.00
2023-05-12T17:12:09.267Z,48.00
2023-05-12T17:14:37.357Z,49.00
2023-05-12T17:17:05.825Z,46.00
2023-05-12T17:19:34.997Z,38.00
2023-05-12T17:22:03.661Z,61.00
2023-05-12T17:24:32.446Z,61.00
2023-05-12T17:27:00.401Z,68.50
2023-05-12T17:29:28.497Z,65.00
2023-05-12T17:31:56.882Z,62.50
2023-05-12T17:34:25.283Z,51.00
2023-05-12T17:36:53.261Z,41.00
2023-05-12T17:39:21.092Z,41.00
2023-05-12T17:41:49.098Z,45.00
2023-05-12T17:44:17.089Z,37.00
2023-05-12T17:46:45.030Z,53.00
2023-05-12T17:49:13.373Z,59.00
2023-05-12T17:51:42.194Z,68.50
2023-05-12T17:54:10.129Z,48.00
2023-05-12T17:56:38.027Z,47.50
2023-05-12T17:59:06.094Z,43.00
2023-05-12T18:01:34.078Z,40.67
2023-05-12T18:04:02.343Z,49.00
2023-05-12T18:08:59.010Z,48.00
2023-05-12T18:11:26.851Z,54.67
2023-05-12T18:13:55.104Z,46.50
2023-05-12T18:16:29.161Z,48.00
2023-05-12T18:18:58.459Z,30.00
2023-05-12T18:21:27.035Z,40.00
2023-05-12T18:23:55.114Z,42.00
2023-05-12T18:26:23.078Z,28.00
2023-05-12T18:28:51.659Z,33.50
2023-05-12T18:31:20.104Z,43.00
2023-05-12T18:33:51.446Z,35.00
2023-05-12T18:36:19.533Z,36.00
2023-05-12T18:38:47.506Z,29.00
2023-05-12T18:41:15.765Z,29.00
2023-05-12T18:43:44.239Z,37.00
2023-05-12T18:46:12.693Z,36.00
2023-05-12T18:48:41.237Z,29.00
2023-05-12T18:51:09.543Z,27.00
2023-05-12T18:56:05.463Z,30.00
2023-05-12T18:58:33.272Z,31.00
2023-05-12T19:01:02.397Z,34.00
2023-05-12T19:03:32.295Z,32.00
2023-05-12T19:06:00.246Z,33.00
2023-05-12T19:08:28.238Z,37.00
2023-05-12T19:10:56.269Z,47.00
2023-05-12T19:13:24.176Z,58.00
2023-05-12T19:15:52.134Z,57.00
2023-05-12T19:18:20.136Z,51.00
2023-05-12T19:20:48.373Z,48.00
2023-05-12T19:23:16.282Z,53.00
2023-05-12T19:25:44.354Z,53.00
2023-05-12T19:28:12.323Z,59.00
2023-05-12T19:30:40.688Z,58.33
2023-05-12T19:33:08.586Z,55.00
2023-05-12T19:35:36.621Z,54.00
2023-05-12T19:38:04.730Z,42.00
2023-05-12T19:40:32.784Z,42.00
2023-05-12T19:43:00.622Z,40.50
2023-05-12T19:45:28.970Z,46.00
2023-05-12T19:47:57.127Z,39.00
2023-05-12T19:50:25.159Z,52.50
2023-05-12T19:52:53.234Z,36.50
2023-05-12T19:55:21.630Z,30.00
2023-05-12T19:57:49.774Z,35.00
2023-05-12T20:00:19.402Z,35.00
2023-05-12T20:02:48.036Z,31.00
2023-05-12T20:05:16.245Z,30.00
2023-05-12T20:07:44.149Z,26.00
2023-05-12T20:10:12.128Z,31.00
2023-05-12T20:12:40.179Z,31.00
2023-05-12T20:15:08.976Z,29.00
2023-05-12T20:20:05.369Z,34.00
2023-05-12T20:22:33.927Z,27.00
2023-05-12T20:25:04.467Z,28.00
2023-05-12T20:27:32.716Z,33.00
2023-05-12T20:30:00.633Z,33.00
2023-05-12T20:32:28.582Z,29.67
2023-05-12T20:34:56.614Z,33.00
2023-05-12T20:37:24.520Z,32.00
2023-05-12T20:39:54.014Z,32.50
2023-05-12T20:42:21.969Z,33.00
2023-05-12T20:44:50.223Z,39.50
2023-05-12T20:47:18.715Z,29.00
2023-05-12T20:49:46.784Z,38.00
2023-05-12T20:52:14.796Z,28.00
2023-05-12T20:54:42.835Z,34.00
2023-05-12T20:57:10.815Z,29.50
2023-05-12T21:02:07.726Z,34.00
2023-05-12T21:04:37.438Z,29.00
2023-05-12T21:07:07.147Z,33.00
2023-05-12T21:09:37.504Z,29.00
2023-05-12T21:12:09.594Z,27.00
2023-05-12T21:14:41.822Z,33.50
2023-05-12T21:17:11.482Z,31.00
2023-05-12T21:19:40.722Z,29.00
2023-05-12T21:22:11.606Z,36.00
2023-05-12T21:24:40.932Z,30.50
2023-05-12T21:27:11.025Z,33.00
2023-05-12T21:29:40.265Z,26.00
2023-05-12T21:32:08.439Z,28.00
2023-05-12T21:34:36.704Z,30.00
2023-05-12T21:37:04.942Z,33.50
2023-05-12T21:39:32.688Z,30.00
2023-05-12T21:42:00.886Z,26.50
2023-05-12T21:44:28.912Z,28.00
2023-05-12T21:46:58.743Z,31.00
2023-05-12T21:49:27.012Z,29.00
2023-05-12T21:51:55.649Z,29.00
2023-05-12T21:54:23.606Z,35.00
2023-05-12T21:56:51.760Z,29.00
2023-05-12T21:59:20.730Z,27.50
2023-05-12T22:01:48.721Z,35.00
2023-05-12T22:04:16.668Z,33.00
2023-05-12T22:06:44.635Z,32.00
2023-05-12T22:09:12.995Z,25.00
2023-05-12T22:11:41.147Z,40.00
2023-05-12T22:14:09.206Z,25.00
2023-05-12T22:16:41.858Z,33.00
2023-05-12T22:19:10.889Z,27.00
2023-05-12T22:21:38.884Z,28.00
2023-05-12T22:24:07.119Z,31.00
2023-05-12T22:26:34.951Z,26.00
2023-05-12T22:29:02.914Z,31.00
2023-05-12T22:31:30.971Z,27.50
2023-05-12T22:33:58.903Z,23.67
2023-05-12T22:36:26.715Z,28.00
2023-05-12T22:38:54.747Z,26.00
2023-05-12T22:41:22.597Z,31.00
2023-05-12T22:43:50.580Z,37.00
2023-05-12T22:46:18.595Z,37.50
2023-05-12T22:48:46.713Z,37.00
2023-05-12T22:51:14.674Z,31.50
2023-05-12T22:53:42.456Z,26.00
2023-05-12T22:56:10.824Z,36.00
2023-05-12T22:58:39.006Z,21.50
2023-05-12T23:01:07.099Z,28.00
2023-05-12T23:03:35.147Z,36.00
2023-05-12T23:06:03.044Z,28.00
2023-05-12T23:08:31.144Z,34.00
2023-05-12T23:10:59.126Z,32.00
2023-05-12T23:13:26.974Z,40.00
2023-05-12T23:15:57.525Z,38.50
2023-05-12T23:18:25.427Z,27.00
2023-05-12T23:20:53.296Z,34.00
2023-05-12T23:23:21.463Z,33.00
2023-05-12T23:25:50.010Z,32.00
2023-05-12T23:28:17.895Z,40.00
2023-05-12T23:30:46.180Z,32.00
2023-05-12T23:33:14.240Z,29.00
2023-05-12T23:35:42.273Z,40.50
2023-05-12T23:38:10.634Z,33.00
2023-05-12T23:40:39.455Z,23.50
2023-05-12T23:43:07.568Z,29.00
2023-05-12T23:45:35.590Z,28.00
2023-05-12T23:48:03.610Z,23.00
2023-05-12T23:50:31.610Z,30.00
2023-05-12T23:52:59.612Z,28.50
2023-05-12T23:55:27.598Z,34.00
2023-05-12T23:57:55.598Z,26.00
